createdAt,value
2019-04-04T18:31:03.680Z,3.58
2019-04-04T18:33:33.448Z,3.50
2019-04-04T18:36:03.603Z,3.77
2019-04-04T18:38:33.273Z,4.12
2019-04-04T18:41:03.358Z,5.12
2019-04-04T18:43:32.910Z,5.35
2019-04-04T18:46:02.635Z,6.20
2019-04-04T18:48:32.344Z,4.97
2019-04-04T18:51:01.976Z,4.45
2019-04-04T18:53:31.528Z,8.93
2019-04-04T18:56:01.435Z,4.17
2019-04-04T18:58:30.967Z,6.42
2019-04-04T19:01:00.703Z,5.35
2019-04-04T19:03:30.548Z,5.80
2019-04-04T19:05:59.986Z,7.10
2019-04-04T19:08:29.437Z,6.03
2019-04-04T19:10:59.103Z,9.05
2019-04-04T19:13:28.861Z,9.03
2019-04-04T19:15:58.825Z,5.85
2019-04-04T19:18:28.437Z,7.20
2019-04-04T19:20:57.906Z,6.72
2019-04-04T19:23:27.440Z,7.62
2019-04-04T19:26:06.104Z,5.87
2019-04-04T19:28:32.464Z,8.25
2019-04-04T19:31:02.286Z,6.65
2019-04-04T19:33:32.103Z,7.80
2019-04-04T19:36:02.213Z,7.30
2019-04-04T19:38:32.002Z,7.72
2019-04-04T19:41:01.568Z,6.85
2019-04-04T19:43:31.357Z,6.62
2019-04-04T19:46:01.188Z,9.50
2019-04-04T19:48:31.232Z,11.35
2019-04-04T19:51:00.768Z,9.35
2019-04-04T19:53:30.470Z,9.10
2019-04-04T19:56:00.642Z,11.35
2019-04-04T19:58:30.216Z,8.23
2019-04-04T20:00:59.823Z,11.48
2019-04-04T20:03:29.806Z,11.25
2019-04-04T20:05:59.450Z,10.25
2019-04-04T20:08:28.965Z,11.10
2019-04-04T20:10:59.190Z,12.73
2019-04-04T20:13:31.042Z,11.40
2019-04-04T20:16:00.523Z,10.50
2019-04-04T20:18:29.966Z,9.95
2019-04-04T20:20:59.511Z,10.35
2019-04-04T20:23:29.431Z,11.10
2019-04-04T20:25:58.882Z,10.50
2019-04-04T20:28:28.611Z,12.40
2019-04-04T20:30:58.343Z,14.05
2019-04-04T20:33:28.087Z,14.38
2019-04-04T20:35:57.528Z,15.18
2019-04-04T20:38:27.157Z,17.37
2019-04-04T20:40:56.985Z,14.20
2019-04-04T20:43:26.639Z,17.50
2019-04-04T20:45:56.078Z,12.98
2019-04-04T20:48:25.633Z,15.63
2019-04-04T20:50:56.807Z,18.40
2019-04-04T20:53:26.339Z,16.30
2019-04-04T20:55:56.015Z,14.73
2019-04-04T20:58:25.743Z,14.98
2019-04-04T21:00:55.110Z,15.65
2019-04-04T21:03:24.969Z,16.20
2019-04-04T21:05:54.394Z,14.53
2019-04-04T21:08:25.398Z,18.20
2019-04-04T21:10:54.919Z,18.15
2019-04-04T21:13:24.399Z,16.32
2019-04-04T21:15:53.929Z,16.15
2019-04-04T21:18:23.592Z,15.58
2019-04-04T21:20:53.101Z,15.98
2019-04-04T21:23:22.852Z,14.78
2019-04-04T21:25:52.697Z,14.63
2019-04-04T21:28:22.246Z,13.75
2019-04-04T21:30:51.688Z,15.95
2019-04-04T21:33:21.247Z,15.93
2019-04-04T21:35:51.023Z,14.38
2019-04-04T21:38:20.473Z,15.43
2019-04-04T21:40:49.900Z,13.48
2019-04-04T21:43:19.658Z,18.00
2019-04-04T21:45:49.395Z,14.38
2019-04-04T21:48:19.035Z,16.35
2019-04-04T21:50:48.602Z,14.85
2019-04-04T21:53:18.245Z,13.72
2019-04-04T21:55:47.999Z,15.38
2019-04-04T21:58:17.760Z,15.68
2019-04-04T22:00:47.812Z,17.00
2019-04-04T22:03:17.342Z,15.95
2019-04-04T22:05:47.243Z,16.25
2019-04-04T22:08:17.046Z,14.70
2019-04-04T22:10:47.112Z,13.20
2019-04-04T22:13:16.697Z,18.15
2019-04-04T22:15:46.374Z,13.93
2019-04-04T22:18:16.047Z,15.68
2019-04-04T22:20:45.634Z,19.10
2019-04-04T22:23:15.480Z,17.42
2019-04-04T22:25:45.173Z,15.65
2019-04-04T22:28:14.862Z,15.70
2019-04-04T22:30:45.228Z,18.25
2019-04-04T22:33:15.081Z,22.65
2019-04-04T22:35:44.888Z,15.68
2019-04-04T22:38:14.535Z,18.50
2019-04-04T22:40:44.116Z,18.70
2019-04-04T22:43:13.677Z,15.63
2019-04-04T22:45:43.444Z,16.17
2019-04-04T22:48:13.108Z,17.32
2019-04-04T22:50:42.675Z,17.73
2019-04-04T22:53:12.743Z,17.50
2019-04-04T22:55:42.520Z,15.72
2019-04-04T22:58:12.000Z,15.88
2019-04-04T23:00:41.792Z,16.23
2019-04-04T23:03:11.550Z,16.77
2019-04-04T23:05:41.464Z,18.37
2019-04-04T23:08:11.378Z,17.77
2019-04-04T23:10:41.285Z,19.27
2019-04-04T23:13:11.212Z,17.10
2019-04-04T23:15:41.327Z,16.75
2019-04-04T23:18:11.492Z,18.05
2019-04-04T23:20:41.569Z,18.15
2019-04-04T23:23:11.467Z,16.62
2019-04-04T23:25:42.077Z,17.60
2019-04-04T23:28:12.077Z,16.40
2019-04-04T23:30:42.666Z,16.93
2019-04-04T23:33:12.569Z,17.80
2019-04-04T23:35:42.725Z,15.72
2019-04-04T23:38:12.521Z,17.55
2019-04-04T23:40:42.512Z,18.67
2019-04-04T23:43:13.559Z,16.62
2019-04-04T23:45:43.517Z,17.98
2019-04-04T23:48:13.522Z,16.62
2019-04-04T23:50:43.518Z,15.53
2019-04-04T23:53:13.512Z,17.98
2019-04-04T23:55:43.838Z,18.50
2019-04-04T23:58:13.724Z,20.90
